Time;durP1;ratioP1;P1;durP2;ratioP2;P2;SDS_P1;SDS_P2;PMS_P1;PMS_P2;Temp;Humidity;BMP_temperature;BMP_pressure;BME280_temperature;BME280_humidity;BME280_pressure;Samples;Min_cycle;Max_cycle;Signal;HPM_P1;HPM_P2
2022/09/28 00:00:36;;;;;;;3.05;0.82;;;;;;;10.20;100.00;99088.53;5589431;31;33910;-68
2022/09/28 00:03:44;;;;;;;1.37;0.60;;;;;;;10.11;100.00;99089.69;5591180;31;34065;-68
2022/09/28 00:06:51;;;;;;;1.92;0.80;;;;;;;10.13;100.00;99086.81;5577040;31;32712;-69
2022/09/28 00:09:57;;;;;;;3.00;0.68;;;;;;;9.95;100.00;99088.16;5576778;31;32899;-69
2022/09/28 00:13:06;;;;;;;3.10;0.68;;;;;;;9.81;100.00;99081.16;5591157;31;34730;-70
2022/09/28 00:16:15;;;;;;;1.58;0.95;;;;;;;9.74;100.00;99068.84;5591053;31;34589;-69
2022/09/28 00:19:26;;;;;;;2.08;0.70;;;;;;;9.70;100.00;99062.31;5591013;31;34388;-70
2022/09/28 00:22:37;;;;;;;2.67;0.90;;;;;;;9.69;100.00;99061.50;5591039;31;35280;-70
2022/09/28 00:25:44;;;;;;;1.70;0.70;;;;;;;9.76;100.00;99058.91;5591078;31;34616;-69
2022/09/28 00:28:55;;;;;;;2.12;0.80;;;;;;;9.88;100.00;99059.97;5591017;31;34194;-70
2022/09/28 00:32:06;;;;;;;1.42;0.80;;;;;;;9.76;100.00;99056.25;5577516;31;34555;-69
2022/09/28 00:35:13;;;;;;;4.20;0.75;;;;;;;9.63;100.00;99054.34;5590914;31;34601;-70
2022/09/28 00:38:20;;;;;;;2.95;0.80;;;;;;;9.55;100.00;99065.88;5590748;31;33969;-70
2022/09/28 00:41:28;;;;;;;1.83;1.00;;;;;;;9.57;100.00;99063.87;5590704;31;34252;-70
2022/09/28 00:44:42;;;;;;;1.40;0.80;;;;;;;9.58;100.00;99065.50;5590906;31;33984;-69
2022/09/28 00:47:57;;;;;;;1.65;0.70;;;;;;;9.75;100.00;99071.31;5590740;31;33959;-70
2022/09/28 00:51:10;;;;;;;1.77;0.85;;;;;;;9.77;100.00;99077.25;5590693;31;33959;-69
2022/09/28 00:54:18;;;;;;;1.70;1.00;;;;;;;9.76;100.00;99080.09;5590761;31;34576;-69
2022/09/28 00:57:27;;;;;;;1.67;0.62;;;;;;;9.87;100.00;99080.38;5576471;31;32447;-70
2022/09/28 01:00:36;;;;;;;0.98;0.60;;;;;;;9.95;100.00;99074.91;5590639;31;34027;-70
2022/09/28 01:03:47;;;;;;;;;;;;;;;10.07;100.00;99080.47;5590903;31;33909;-69
2022/09/28 01:06:59;;;;;;;1.23;0.60;;;;;;;10.06;98.56;99080.66;5590788;31;34557;-69
2022/09/28 01:10:06;;;;;;;0.85;0.60;;;;;;;10.08;99.10;99084.75;5590918;31;34003;-69
2022/09/28 01:13:16;;;;;;;1.70;0.70;;;;;;;10.15;96.18;99090.09;5590341;31;35407;-70
2022/09/28 01:16:42;;;;;;;2.08;0.50;;;;;;;10.15;96.90;99088.25;5590530;31;34208;-70
2022/09/28 01:20:28;;;;;;;1.37;0.50;;;;;;;10.07;97.51;99082.31;5590433;31;33917;-70
2022/09/28 01:24:13;;;;;;;1.67;0.68;;;;;;;10.02;98.81;99091.66;5559186;31;33831;-69
2022/09/28 01:27:30;;;;;;;1.17;0.70;;;;;;;9.93;99.45;99089.34;5590546;31;33891;-69
2022/09/28 01:31:05;;;;;;;1.77;0.90;;;;;;;9.88;100.00;99095.22;5590471;31;34676;-70
2022/09/28 01:34:24;;;;;;;1.50;0.60;;;;;;;9.84;100.00;99094.00;5584935;31;34805;-69
2022/09/28 01:37:40;;;;;;;1.00;0.73;;;;;;;9.83;100.00;99097.62;5590360;31;35279;-70
2022/09/28 01:40:50;;;;;;;2.92;0.80;;;;;;;9.78;100.00;99100.06;5590250;31;34013;-69
2022/09/28 01:44:01;;;;;;;4.65;0.70;;;;;;;9.71;100.00;99087.78;5576902;31;34176;-69
2022/09/28 01:47:14;;;;;;;1.27;0.62;;;;;;;9.74;100.00;99100.63;5590123;31;34332;-69
2022/09/28 01:50:24;;;;;;;1.10;0.80;;;;;;;9.74;100.00;99100.63;5590116;31;34249;-70
2022/09/28 01:53:44;;;;;;;1.20;0.68;;;;;;;9.70;100.00;99109.97;5590165;31;33935;-69
2022/09/28 01:56:57;;;;;;;1.62;0.70;;;;;;;9.70;100.00;99113.44;5590332;31;34662;-69
2022/09/28 02:00:09;;;;;;;3.72;0.82;;;;;;;9.76;100.00;99125.94;5590120;31;33887;-68
2022/09/28 02:03:27;;;;;;;1.48;0.70;;;;;;;9.83;100.00;99104.75;5590001;31;33871;-70
2022/09/28 02:06:45;;;;;;;2.37;0.70;;;;;;;9.94;98.16;99109.53;5589987;31;34649;-70
2022/09/28 02:10:02;;;;;;;3.10;0.60;;;;;;;10.03;97.25;99105.72;5589945;31;35315;-70
2022/09/28 02:13:16;;;;;;;2.35;0.80;;;;;;;10.16;95.78;99113.78;5589912;31;33901;-71
2022/09/28 02:16:32;;;;;;;1.37;0.68;;;;;;;10.22;95.36;99099.72;5589854;31;33959;-69
2022/09/28 02:19:40;;;;;;;0.80;0.50;;;;;;;10.22;96.43;99101.56;5589734;31;34255;-70
2022/09/28 02:22:55;;;;;;;1.05;0.60;;;;;;;10.15;95.69;99104.16;5589069;31;34429;-70
2022/09/28 02:26:10;;;;;;;2.30;0.70;;;;;;;10.11;97.00;99107.41;5589813;31;34050;-70
2022/09/28 02:29:17;;;;;;;1.10;0.70;;;;;;;10.03;97.61;99103.88;5589704;31;34361;-70
2022/09/28 02:32:30;;;;;;;2.25;0.70;;;;;;;10.08;97.18;99110.44;5575734;31;33223;-70
2022/09/28 02:35:37;;;;;;;2.30;0.70;;;;;;;10.08;96.62;99113.06;5589688;31;34114;-70
2022/09/28 02:38:46;;;;;;;1.30;0.55;;;;;;;10.08;96.42;99110.44;5589456;31;33911;-69
2022/09/28 02:42:19;;;;;;;2.37;0.82;;;;;;;10.14;96.38;99120.25;5589844;31;34031;-70
2022/09/28 02:45:58;;;;;;;2.28;0.65;;;;;;;10.10;96.60;99113.72;5589797;31;33972;-70
2022/09/28 02:49:23;;;;;;;2.75;0.82;;;;;;;10.09;96.10;99114.72;5589735;31;33940;-70
2022/09/28 02:53:02;;;;;;;1.58;0.80;;;;;;;10.02;97.16;99110.19;5589519;31;34236;-70
2022/09/28 02:56:22;;;;;;;1.42;0.70;;;;;;;10.01;97.60;99110.41;5589661;31;34430;-70
2022/09/28 02:59:45;;;;;;;1.73;0.80;;;;;;;10.01;96.91;99105.09;5589534;31;34583;-70
2022/09/28 03:03:41;;;;;;;2.22;0.60;;;;;;;9.97;98.15;99106.50;5589831;31;34032;-70
2022/09/28 03:07:05;;;;;;;1.17;0.60;;;;;;;9.93;98.20;99114.00;5586481;31;34507;-71
2022/09/28 03:10:37;;;;;;;2.62;0.73;;;;;;;9.93;98.23;99135.19;5576524;31;34231;-70
2022/09/28 03:13:45;;;;;;;;;;;;;;;9.95;99.66;99138.50;5589843;31;34115;-70
2022/09/28 03:16:52;;;;;;;3.47;0.90;;;;;;;9.84;99.99;99138.19;5589501;31;34365;-70
2022/09/28 03:20:01;;;;;;;1.48;0.93;;;;;;;9.83;100.00;99145.31;5589484;31;33945;-69
2022/09/28 03:23:08;;;;;;;2.72;0.73;;;;;;;9.75;100.00;99140.19;5589262;31;34039;-70
2022/09/28 03:26:32;;;;;;;2.33;0.70;;;;;;;9.69;100.00;99142.75;5589332;31;34207;-70
2022/09/28 03:29:39;;;;;;;2.25;0.70;;;;;;;9.55;100.00;99145.31;5589313;31;34659;-70
2022/09/28 03:32:55;;;;;;;2.70;0.75;;;;;;;9.57;100.00;99138.00;5589274;31;34048;-70
2022/09/28 03:36:03;;;;;;;1.77;0.70;;;;;;;9.50;100.00;99139.78;5589135;31;33998;-70
2022/09/28 03:39:13;;;;;;;2.80;0.90;;;;;;;9.54;100.00;99142.84;5589043;31;34730;-70
2022/09/28 03:42:21;;;;;;;3.67;0.73;;;;;;;9.56;100.00;99139.03;5574775;31;33771;-69
2022/09/28 03:45:30;;;;;;;1.23;0.55;;;;;;;9.50;100.00;99147.72;5589031;31;33932;-70
2022/09/28 03:48:41;;;;;;;3.35;1.00;;;;;;;9.54;100.00;99141.03;5589027;31;33907;-70
2022/09/28 03:51:50;;;;;;;2.58;0.80;;;;;;;9.51;100.00;99136.12;5588904;31;34407;-70
2022/09/28 03:54:57;;;;;;;2.40;0.80;;;;;;;9.54;100.00;99141.03;5588900;31;33775;-70
2022/09/28 03:58:04;;;;;;;2.00;0.70;;;;;;;9.56;100.00;99148.78;5588976;31;34276;-71
2022/09/28 04:01:12;;;;;;;1.35;0.62;;;;;;;9.65;100.00;99144.16;5574813;31;32750;-70
2022/09/28 04:04:24;;;;;;;1.05;0.60;;;;;;;9.70;100.00;99147.06;5588816;31;34120;-70
2022/09/28 04:07:32;;;;;;;3.35;0.75;;;;;;;9.64;100.00;99145.16;5588466;31;34615;-70
2022/09/28 04:10:41;;;;;;;1.00;0.60;;;;;;;9.68;99.98;99151.75;5588620;31;33952;-71
2022/09/28 04:13:51;;;;;;;1.83;0.80;;;;;;;9.66;99.59;99151.94;5588553;31;34330;-71
2022/09/28 04:16:59;;;;;;;1.65;0.77;;;;;;;9.67;99.23;99142.97;5588352;31;34014;-70
2022/09/28 04:20:07;;;;;;;1.25;0.70;;;;;;;9.67;99.97;99142.16;5588425;31;34193;-71
2022/09/28 04:23:15;;;;;;;2.55;0.80;;;;;;;9.73;99.04;99144.03;5588273;31;35301;-71
2022/09/28 04:26:23;;;;;;;4.80;0.80;;;;;;;9.73;98.00;99146.69;5588149;31;34094;-71
2022/09/28 04:29:30;;;;;;;2.55;0.82;;;;;;;9.69;99.27;99145.41;5587878;31;33675;-71
2022/09/28 04:32:36;;;;;;;3.90;0.90;;;;;;;9.64;99.71;99143.34;5574120;31;33248;-71
2022/09/28 04:35:40;;;;;;;2.65;0.90;;;;;;;9.53;99.81;99136.75;5588463;31;34870;-70
2022/09/28 04:38:44;;;;;;;1.95;0.90;;;;;;;9.50;100.00;99137.13;5587940;31;35302;-71
2022/09/28 04:42:00;;;;;;;1.70;0.50;;;;;;;9.52;100.00;99144.88;5587810;31;34789;-71
2022/09/28 04:45:07;;;;;;;3.40;0.70;;;;;;;9.51;100.00;99135.31;5587712;31;33947;-71
2022/09/28 04:48:14;;;;;;;3.12;0.90;;;;;;;9.38;100.00;99143.12;5590403;31;35216;-71
2022/09/28 04:51:18;;;;;;;9.85;1.20;;;;;;;9.36;100.00;99140.66;5590362;31;33957;-71
2022/09/28 04:54:23;;;;;;;2.67;0.85;;;;;;;9.36;100.00;99138.03;5577008;31;33998;-71
2022/09/28 04:57:27;;;;;;;1.77;0.98;;;;;;;9.31;100.00;99132.47;5576325;31;32727;-71
2022/09/28 05:00:33;;;;;;;1.40;0.70;;;;;;;9.35;100.00;99136.38;5576295;31;33982;-70
2022/09/28 05:03:40;;;;;;;2.87;1.15;;;;;;;9.27;100.00;99136.53;5563937;31;32427;-70
2022/09/28 05:06:45;;;;;;;1.35;0.70;;;;;;;9.13;100.00;99143.50;5590493;31;34559;-70
2022/09/28 05:09:50;;;;;;;4.35;0.90;;;;;;;9.08;100.00;99145.91;5590441;31;34612;-70
2022/09/28 05:12:56;;;;;;;3.33;0.80;;;;;;;9.12;100.00;99149.00;5590443;31;34740;-70
2022/09/28 05:16:01;;;;;;;3.08;0.90;;;;;;;9.18;100.00;99155.34;5576477;31;33538;-70
2022/09/28 05:19:11;;;;;;;6.20;1.10;;;;;;;9.17;100.00;99157.19;5590817;31;34566;-71
2022/09/28 05:22:15;;;;;;;1.17;0.85;;;;;;;9.12;100.00;99159.56;5590145;31;33867;-70
2022/09/28 05:25:20;;;;;;;1.27;0.80;;;;;;;9.14;100.00;99161.03;5590783;31;35171;-71
2022/09/28 05:28:30;;;;;;;3.35;1.00;;;;;;;9.08;100.00;99158.31;5576985;31;35220;-71
2022/09/28 05:31:40;;;;;;;2.62;0.90;;;;;;;9.09;100.00;99154.66;5590106;31;34507;-71
2022/09/28 05:34:46;;;;;;;3.67;0.85;;;;;;;9.03;100.00;99153.59;5575929;31;34109;-71
2022/09/28 05:37:50;;;;;;;4.03;1.05;;;;;;;9.11;100.00;99158.75;5589841;31;33978;-70
2022/09/28 05:40:55;;;;;;;4.07;0.90;;;;;;;9.17;100.00;99159.81;5590407;31;34050;-70
2022/09/28 05:44:01;;;;;;;1.83;1.15;;;;;;;9.29;100.00;99168.09;5576095;31;33959;-71
2022/09/28 05:47:05;;;;;;;1.02;0.80;;;;;;;9.34;100.00;99153.28;5589641;31;34743;-71
2022/09/28 05:50:10;;;;;;;2.37;1.10;;;;;;;9.41;99.53;99155.97;5589996;31;34767;-70
2022/09/28 05:53:14;;;;;;;2.08;0.95;;;;;;;9.49;100.00;99156.66;5589395;31;34563;-71
2022/09/28 05:56:18;;;;;;;3.03;1.20;;;;;;;9.48;100.00;99160.34;5589506;31;34097;-71
2022/09/28 05:59:22;;;;;;;2.65;1.17;;;;;;;9.63;100.00;99159.44;5588616;31;33936;-71
2022/09/28 06:02:26;;;;;;;2.75;1.20;;;;;;;9.72;100.00;99160.94;5589478;31;34310;-71
2022/09/28 06:05:32;;;;;;;1.75;0.90;;;;;;;9.77;100.00;99156.72;5589850;31;34128;-71
2022/09/28 06:08:36;;;;;;;3.65;1.10;;;;;;;9.82;97.69;99143.72;5589532;31;33926;-70
2022/09/28 06:11:41;;;;;;;3.75;0.90;;;;;;;9.96;97.51;99134.84;5590221;31;34008;-71
2022/09/28 06:14:46;;;;;;;1.55;0.88;;;;;;;10.02;96.49;99141.19;5589804;31;35282;-71
2022/09/28 06:17:59;;;;;;;1.58;0.90;;;;;;;10.03;94.92;99146.28;5589810;31;34299;-71
2022/09/28 06:21:07;;;;;;;4.28;0.93;;;;;;;10.10;94.31;99148.16;5589089;31;33997;-70
2022/09/28 06:24:10;;;;;;;3.03;1.42;;;;;;;10.17;94.38;99141.09;5589387;31;33992;-70
2022/09/28 06:27:15;;;;;;;3.67;1.10;;;;;;;10.18;95.70;99145.38;5589462;31;34066;-71
2022/09/28 06:30:20;;;;;;;2.25;1.12;;;;;;;10.19;94.91;99144.38;5589648;31;35420;-71
2022/09/28 06:33:25;;;;;;;5.37;1.00;;;;;;;10.25;93.88;99146.25;5589359;31;34528;-71
2022/09/28 06:36:30;;;;;;;1.75;1.00;;;;;;;10.50;94.24;99158.00;5589533;31;35211;-71
2022/09/28 06:39:34;;;;;;;3.22;1.10;;;;;;;10.63;92.86;99154.59;5589344;31;34051;-71
2022/09/28 06:42:38;;;;;;;3.78;1.20;;;;;;;10.81;91.54;99155.66;5589380;31;34678;-70
2022/09/28 06:45:51;;;;;;;;;;;;;;;10.95;92.64;99147.75;5589608;31;33991;-70
2022/09/28 06:48:56;;;;;;;4.50;1.10;;;;;;;11.06;92.44;99149.81;5589290;31;34211;-71
2022/09/28 06:52:01;;;;;;;3.35;0.93;;;;;;;11.13;89.06;99162.09;5589449;31;34616;-71
2022/09/28 06:55:06;;;;;;;2.83;1.00;;;;;;;11.20;87.22;99167.41;5589424;31;33939;-71
2022/09/28 06:58:16;;;;;;;3.00;1.20;;;;;;;11.28;87.97;99162.72;5575534;31;32448;-71
2022/09/28 07:01:20;;;;;;;6.45;1.10;;;;;;;11.41;88.05;99167.25;5589260;31;33933;-71
2022/09/28 07:04:24;;;;;;;2.33;1.10;;;;;;;11.46;90.04;99170.13;5589157;31;34214;-71
2022/09/28 07:07:30;;;;;;;4.28;1.20;;;;;;;11.56;87.24;99169.72;5589118;31;33880;-71
2022/09/28 07:10:33;;;;;;;3.35;0.88;;;;;;;11.66;83.32;99163.00;5589011;31;33882;-70
2022/09/28 07:13:39;;;;;;;3.28;0.95;;;;;;;12.11;77.82;99168.47;5589111;31;34293;-70
2022/09/28 07:16:58;;;;;;;6.07;1.00;;;;;;;12.63;81.08;99165.69;5589191;31;34049;-70
2022/09/28 07:20:17;;;;;;;1.75;0.80;;;;;;;13.60;72.25;99171.75;5589227;31;35215;-69
2022/09/28 07:23:25;;;;;;;4.37;0.95;;;;;;;14.54;66.66;99161.66;5574998;31;33545;-71
2022/09/28 07:26:34;;;;;;;1.52;0.68;;;;;;;16.31;62.75;99162.72;5589441;31;33957;-71
2022/09/28 07:29:38;;;;;;;6.22;0.90;;;;;;;18.24;58.93;99165.25;5574835;31;33932;-70
2022/09/28 07:32:41;;;;;;;2.95;0.90;;;;;;;18.87;54.39;99158.56;5575353;31;32919;-70
2022/09/28 07:35:54;;;;;;;3.87;1.00;;;;;;;20.19;46.47;99156.00;5588918;31;34471;-71
2022/09/28 07:39:00;;;;;;;4.32;1.05;;;;;;;20.50;45.78;99167.00;5588447;31;33948;-71
2022/09/28 07:42:06;;;;;;;1.98;1.10;;;;;;;21.11;43.93;99162.66;5574892;31;33933;-71
2022/09/28 07:45:10;;;;;;;5.60;0.82;;;;;;;21.44;44.20;99159.53;5589007;31;34671;-71
2022/09/28 07:48:15;;;;;;;5.12;1.10;;;;;;;20.97;44.19;99150.75;5589274;31;33963;-71
2022/09/28 07:51:21;;;;;;;4.45;0.98;;;;;;;23.39;41.79;99155.78;5588872;31;33991;-71
2022/09/28 07:54:26;;;;;;;5.40;1.00;;;;;;;23.45;40.17;99162.03;5588749;31;34022;-70
2022/09/28 07:57:32;;;;;;;3.45;0.95;;;;;;;23.17;41.20;99168.94;5588983;31;34313;-70
2022/09/28 08:00:36;;;;;;;1.90;0.85;;;;;;;21.12;46.01;99162.37;5588818;31;34107;-69
2022/09/28 08:03:46;;;;;;;6.75;1.12;;;;;;;22.91;41.56;99162.03;5588566;31;34668;-70
2022/09/28 08:06:50;;;;;;;;;;;;;;;23.35;40.75;99167.47;5575085;31;32762;-69
2022/09/28 08:09:53;;;;;;;3.72;0.90;;;;;;;24.19;38.90;99166.31;5574442;31;33459;-69
2022/09/28 08:13:02;;;;;;;6.10;1.10;;;;;;;24.57;39.22;99168.06;5588161;31;34490;-70
2022/09/28 08:16:10;;;;;;;4.82;1.40;;;;;;;24.52;39.45;99164.59;5588119;31;35314;-70
2022/09/28 08:19:13;;;;;;;3.45;1.20;;;;;;;24.41;39.83;99166.62;5573907;31;32540;-70
2022/09/28 08:22:19;;;;;;;3.47;1.08;;;;;;;23.52;40.59;99157.13;5589384;31;33823;-69
2022/09/28 08:25:23;;;;;;;3.03;1.40;;;;;;;21.39;44.77;99145.22;5576308;31;33236;-70
2022/09/28 08:28:28;;;;;;;3.03;1.30;;;;;;;19.60;50.42;99139.19;5590826;31;35140;-70
2022/09/28 08:31:31;;;;;;;1.92;1.08;;;;;;;20.78;48.65;99136.94;5590647;31;33949;-68
2022/09/28 08:34:37;;;;;;;2.50;1.20;;;;;;;22.27;44.81;99127.62;5590615;31;34662;-68
2022/09/28 08:37:41;;;;;;;1.67;0.93;;;;;;;22.50;46.78;99116.22;5590754;31;34833;-68
2022/09/28 08:41:32;;;;;;;2.10;1.10;;;;;;;20.55;48.69;99110.44;5576079;31;34928;-66
2022/09/28 08:44:44;;;;;;;2.22;1.00;;;;;;;18.89;52.32;99119.63;5576044;31;34392;-68
2022/09/28 08:51:30;;;;;;;1.07;0.87;;;;;;;17.35;58.16;99126.78;5590050;31;34259;-67
2022/09/28 08:54:43;;;;;;;3.83;1.00;;;;;;;16.26;64.21;99134.00;5590576;31;33927;-67
2022/09/28 08:58:00;;;;;;;2.80;1.20;;;;;;;15.93;65.65;99141.78;5575727;31;32774;-66
2022/09/28 09:01:15;;;;;;;3.12;1.20;;;;;;;15.88;67.23;99128.28;5589717;31;35434;-67
2022/09/28 09:04:19;;;;;;;4.18;1.10;;;;;;;15.42;68.16;99139.72;5590222;31;35319;-68
2022/09/28 09:07:55;;;;;;;3.37;1.27;;;;;;;15.33;69.72;99123.22;5576429;31;32750;-67
2022/09/28 09:11:17;;;;;;;1.83;1.23;;;;;;;15.13;69.07;99120.00;5590697;31;34573;-68
2022/09/28 09:14:53;;;;;;;3.92;1.42;;;;;;;14.84;70.83;99124.31;5590188;31;34235;-67
2022/09/28 09:18:21;;;;;;;3.47;1.10;;;;;;;14.67;71.09;99126.78;5590237;31;33959;-68
2022/09/28 09:21:49;;;;;;;4.00;1.40;;;;;;;14.58;70.66;99130.78;5590131;31;34184;-66
2022/09/28 09:25:06;;;;;;;4.25;1.10;;;;;;;14.58;71.27;99130.78;5589866;31;34384;-65
2022/09/28 09:28:45;;;;;;;1.95;1.20;;;;;;;14.76;70.87;99121.97;5590065;31;33980;-67
2022/09/28 09:32:03;;;;;;;3.42;1.17;;;;;;;14.88;70.92;99117.47;5576736;31;34176;-67
2022/09/28 09:35:19;;;;;;;4.47;1.25;;;;;;;14.96;73.98;99125.16;5590010;31;34047;-66
2022/09/28 09:38:40;;;;;;;3.20;1.10;;;;;;;15.13;73.59;99126.16;5576114;31;32381;-68
2022/09/28 09:41:49;;;;;;;2.40;1.10;;;;;;;15.00;71.04;99112.19;5576219;31;34072;-72
2022/09/28 09:44:58;;;;;;;2.80;1.30;;;;;;;14.82;71.10;99107.69;5590010;31;34256;-67
2022/09/28 09:48:30;;;;;;;2.50;1.20;;;;;;;14.95;73.42;99115.56;5576159;31;32518;-68
2022/09/28 09:51:47;;;;;;;5.37;1.83;;;;;;;15.21;70.24;99117.00;5590030;31;33941;-65
2022/09/28 09:55:01;;;;;;;3.50;1.40;;;;;;;15.68;69.15;99114.47;5575406;31;34074;-66
2022/09/28 09:58:13;;;;;;;9.88;1.70;;;;;;;16.04;70.65;99119.56;5576676;31;33891;-66
2022/09/28 10:01:22;;;;;;;5.55;1.40;;;;;;;16.46;68.13;99120.22;5576299;31;34644;-66
2022/09/28 10:04:39;;;;;;;5.40;1.00;;;;;;;16.55;65.51;99116.13;5589944;31;34680;-64
2022/09/28 10:07:53;;;;;;;3.33;0.95;;;;;;;16.75;66.12;99121.91;5589821;31;34387;-64
2022/09/28 10:11:11;;;;;;;3.47;1.20;;;;;;;16.80;65.55;99124.69;5589755;31;33990;-66
2022/09/28 10:14:18;;;;;;;1.58;0.95;;;;;;;16.99;65.30;99125.34;5575610;31;34040;-66
2022/09/28 10:17:26;;;;;;;2.28;1.02;;;;;;;17.06;63.44;99120.62;5562799;31;34354;-65
2022/09/28 10:20:38;;;;;;;2.92;1.08;;;;;;;17.35;62.37;99119.53;5590122;31;35251;-64
2022/09/28 10:23:43;;;;;;;5.05;1.12;;;;;;;17.08;63.93;99125.75;5589417;31;33903;-68
2022/09/28 10:26:53;;;;;;;2.95;1.05;;;;;;;17.35;63.68;99126.78;5576003;31;34074;-67
2022/09/28 10:30:01;;;;;;;6.72;1.20;;;;;;;17.57;61.14;99114.25;5589638;31;33901;-64
2022/09/28 10:33:05;;;;;;;2.37;1.05;;;;;;;17.57;62.87;99118.84;5575598;31;34219;-67
2022/09/28 10:36:10;;;;;;;3.58;1.08;;;;;;;17.89;62.04;99127.94;5575391;31;33417;-66
2022/09/28 10:39:35;;;;;;;2.37;1.10;;;;;;;17.47;61.69;99119.47;5575773;31;33959;-67
2022/09/28 10:42:39;;;;;;;1.37;0.80;;;;;;;17.68;61.06;99126.81;5589630;31;34643;-64
2022/09/28 10:45:43;;;;;;;4.28;1.10;;;;;;;18.07;63.43;99124.19;5589138;31;34658;-66
2022/09/28 10:48:53;;;;;;;2.20;1.00;;;;;;;18.17;62.03;99119.78;5575681;31;34217;-65
2022/09/28 10:51:57;;;;;;;2.45;1.00;;;;;;;18.83;59.65;99127.91;5589673;31;34185;-66
2022/09/28 10:55:03;;;;;;;1.45;0.82;;;;;;;20.68;51.45;99126.94;5589603;31;34558;-66
2022/09/28 10:58:24;;;;;;;7.97;0.90;;;;;;;22.86;46.29;99124.19;5589566;31;34599;-65
2022/09/28 11:01:32;;;;;;;6.72;1.70;;;;;;;22.85;44.28;99120.66;5575479;31;32469;-65
2022/09/28 11:04:40;;;;;;;4.00;0.80;;;;;;;22.74;44.40;99124.53;5589257;31;34537;-67
2022/09/28 11:07:46;;;;;;;4.40;0.85;;;;;;;22.88;46.00;99109.31;5576051;31;33850;-67
2022/09/28 11:11:10;;;;;;;1.92;0.80;;;;;;;25.22;40.50;99110.56;5575444;31;33244;-68
2022/09/28 11:14:23;;;;;;;3.78;1.45;;;;;;;23.11;43.83;99102.41;5575125;31;34137;-64
2022/09/28 11:17:49;;;;;;;3.20;1.60;;;;;;;20.63;50.35;99099.97;5575076;31;33595;-66
2022/09/28 11:21:13;;;;;;;3.35;1.92;;;;;;;20.46;51.66;99099.38;5589062;31;35549;-64
2022/09/28 11:24:23;;;;;;;3.60;1.55;;;;;;;21.30;50.43;99088.25;5589245;31;34202;-64
2022/09/28 11:27:28;;;;;;;3.17;1.70;;;;;;;23.77;43.24;99093.78;5575415;31;33980;-65
2022/09/28 11:30:58;;;;;;;3.47;2.20;;;;;;;25.63;39.65;99089.00;5575215;31;32942;-67
2022/09/28 11:34:12;;;;;;;4.12;1.52;;;;;;;29.16;33.73;99087.13;5572873;31;33852;-66
2022/09/28 11:37:22;;;;;;;5.85;1.45;;;;;;;26.70;37.04;99086.69;5575006;31;33993;-67
2022/09/28 11:40:52;;;;;;;4.93;1.25;;;;;;;24.98;39.65;99073.44;5573268;31;33715;-68
2022/09/28 11:44:27;;;;;;;7.22;1.65;;;;;;;27.21;37.69;99083.66;5573449;31;32450;-66
2022/09/28 11:47:46;;;;;;;3.78;1.30;;;;;;;26.63;36.49;99082.78;5573126;31;33172;-66
2022/09/28 11:51:03;;;;;;;3.05;1.00;;;;;;;28.09;33.13;99094.81;5587556;31;34216;-65
2022/09/28 11:54:27;;;;;;;3.40;1.00;;;;;;;27.94;33.86;99087.84;5587095;31;34118;-66
2022/09/28 11:57:41;;;;;;;3.05;1.10;;;;;;;29.18;32.03;99080.22;5558765;31;32507;-67
2022/09/28 12:00:50;;;;;;;1.98;1.20;;;;;;;30.14;30.07;99074.28;5573114;31;33368;-65
2022/09/28 12:04:02;;;;;;;1.85;1.02;;;;;;;28.80;30.76;99060.94;5573001;31;33362;-69
2022/09/28 12:07:14;;;;;;;3.42;0.90;;;;;;;28.60;30.30;99057.97;5572991;31;33067;-65
2022/09/28 12:10:36;;;;;;;1.73;0.90;;;;;;;28.56;31.11;99063.28;5573124;31;33379;-67
2022/09/28 12:13:52;;;;;;;1.73;0.88;;;;;;;27.61;32.09;99051.94;5586951;31;33930;-64
2022/09/28 12:17:22;;;;;;;1.23;0.77;;;;;;;26.80;34.84;99042.16;5572981;31;33735;-66
2022/09/28 12:20:31;;;;;;;4.00;0.70;;;;;;;27.95;32.12;99048.59;5587032;31;34014;-66
2022/09/28 12:23:38;;;;;;;2.45;0.73;;;;;;;27.33;34.38;99036.03;5572884;31;33322;-66
2022/09/28 12:26:47;;;;;;;1.05;0.60;;;;;;;30.66;28.43;99041.19;5586568;31;34522;-65
2022/09/28 12:30:03;;;;;;;4.47;0.77;;;;;;;29.56;29.35;99041.31;5573061;31;32431;-66
2022/09/28 12:33:11;;;;;;;2.42;0.90;;;;;;;25.94;34.30;99022.16;5586748;31;34608;-67
2022/09/28 12:36:40;;;;;;;1.30;0.63;;;;;;;25.79;34.05;99025.97;5560045;31;32325;-65
2022/09/28 12:39:57;;;;;;;;;;;;;;;26.26;34.37;99015.84;5579641;31;260253;-67
2022/09/28 12:43:09;;;;;;;1.70;0.88;;;;;;;24.95;37.32;99006.19;5587902;31;34376;-66
2022/09/28 12:46:55;;;;;;;1.77;0.50;;;;;;;23.58;40.29;99007.06;5587763;31;34115;-64
2022/09/28 12:50:26;;;;;;;4.43;0.68;;;;;;;23.64;40.36;99000.50;5553741;31;34553;-64
2022/09/28 12:54:18;;;;;;;5.45;0.70;;;;;;;25.35;37.95;99015.59;5587371;31;34698;-64
2022/09/28 12:57:35;;;;;;;3.45;0.90;;;;;;;22.17;43.58;98999.91;5573706;31;33400;-63
2022/09/28 13:00:57;;;;;;;4.78;0.70;;;;;;;21.57;45.82;99007.88;5587604;31;34524;-64
2022/09/28 13:04:43;;;;;;;2.05;0.60;;;;;;;23.46;41.58;99001.22;5587601;31;34028;-64
2022/09/28 13:08:17;;;;;;;3.35;0.70;;;;;;;22.73;42.94;99003.13;5588702;31;34072;-64
2022/09/28 13:11:40;;;;;;;7.22;0.77;;;;;;;21.14;45.05;98998.47;5576429;31;33333;-66
2022/09/28 13:14:50;;;;;;;2.65;0.70;;;;;;;18.75;49.70;98991.28;5576516;31;32353;-66
2022/09/28 13:18:02;;;;;;;2.45;0.50;;;;;;;18.50;52.33;98989.94;5576489;31;32621;-65
2022/09/28 13:21:17;;;;;;;4.00;0.93;;;;;;;18.99;52.52;98997.97;5590253;31;33856;-65
2022/09/28 13:24:32;;;;;;;6.57;1.00;;;;;;;19.51;51.39;98979.28;5589897;31;34355;-65
2022/09/28 13:27:44;;;;;;;1.25;0.70;;;;;;;18.72;51.48;98994.50;5590023;31;34685;-65
2022/09/28 13:30:50;;;;;;;1.12;0.70;;;;;;;18.83;51.98;98988.94;5575697;31;32580;-65
2022/09/28 13:33:57;;;;;;;2.08;0.93;;;;;;;19.07;51.68;98992.16;5575988;31;33267;-65
2022/09/28 13:37:22;;;;;;;4.37;0.90;;;;;;;18.88;53.38;98996.28;5575165;31;33127;-64
2022/09/28 13:41:04;;;;;;;3.60;0.57;;;;;;;19.49;51.09;98995.72;5589423;31;35251;-64
2022/09/28 13:44:25;;;;;;;4.00;0.60;;;;;;;19.68;48.12;98987.19;5575888;31;33506;-64
2022/09/28 13:47:48;;;;;;;1.30;0.60;;;;;;;19.29;50.05;98984.78;5589675;31;34153;-65
2022/09/28 13:51:13;;;;;;;2.95;0.77;;;;;;;20.03;47.97;98984.69;5575647;31;32606;-64
2022/09/28 13:54:35;;;;;;;1.17;0.90;;;;;;;20.26;47.21;98983.44;5575603;31;33673;-66
2022/09/28 13:58:05;;;;;;;6.57;0.60;;;;;;;21.06;46.05;98971.97;5589476;31;33960;-64
2022/09/28 14:01:16;;;;;;;3.08;0.90;;;;;;;20.10;48.17;98977.16;5589378;31;34136;-65
2022/09/28 14:04:52;;;;;;;4.30;0.77;;;;;;;19.72;49.24;98977.53;5575693;31;32699;-64
2022/09/28 14:08:19;;;;;;;2.37;0.50;;;;;;;19.00;50.54;98981.59;5589641;31;34345;-65
2022/09/28 14:11:30;;;;;;;3.33;1.30;;;;;;;18.67;51.25;98984.53;5589841;31;34225;-63
2022/09/28 14:14:49;;;;;;;1.40;0.60;;;;;;;18.72;53.00;98975.69;5589334;31;34581;-64
2022/09/28 14:18:06;;;;;;;2.35;0.60;;;;;;;19.21;51.04;98979.87;5575299;31;32347;-64
2022/09/28 14:21:44;;;;;;;1.50;0.70;;;;;;;19.31;49.66;98981.84;5574622;31;34089;-64
2022/09/28 14:25:25;;;;;;;3.55;0.77;;;;;;;19.05;48.87;98981.63;5589007;31;34892;-65
2022/09/28 14:28:48;;;;;;;2.28;0.60;;;;;;;18.81;50.68;98972.28;5497322;32;34696;-65
2022/09/28 14:32:24;;;;;;;4.40;1.05;;;;;;;19.21;49.95;98979.06;5497003;32;33321;-64
2022/09/28 14:35:40;;;;;;;1.60;0.70;;;;;;;19.20;50.97;98972.87;5509588;32;34048;-64
2022/09/28 14:42:17;;;;;;;2.42;0.50;;;;;;;18.93;51.05;98967.53;5496631;32;33298;-64
2022/09/28 14:45:35;;;;;;;3.70;0.70;;;;;;;18.33;51.82;98962.38;5509300;32;34382;-64
2022/09/28 14:49:00;;;;;;;1.40;0.63;;;;;;;18.45;51.54;98963.03;5509591;32;34644;-64
2022/09/28 14:52:11;;;;;;;2.70;0.70;;;;;;;18.45;51.24;98968.41;5496702;32;32568;-64
2022/09/28 14:55:22;;;;;;;1.48;0.70;;;;;;;18.21;51.55;98964.37;5509446;32;33826;-64
2022/09/28 14:58:32;;;;;;;1.60;0.70;;;;;;;17.87;54.10;98963.72;5497563;32;35276;-65
2022/09/28 15:01:38;;;;;;;3.20;0.75;;;;;;;17.80;54.63;98957.75;5533840;31;34221;-64
2022/09/28 15:05:01;;;;;;;1.08;0.70;;;;;;;17.60;55.48;98952.09;5589248;31;33871;-65
2022/09/28 15:08:12;;;;;;;1.08;0.68;;;;;;;17.45;55.57;98954.53;5589097;31;34132;-64
2022/09/28 15:11:23;;;;;;;2.47;0.70;;;;;;;17.41;55.81;98948.06;5588855;31;33930;-64
2022/09/28 15:14:34;;;;;;;1.95;0.60;;;;;;;17.22;56.59;98942.16;5574850;31;34012;-64
2022/09/28 15:17:47;;;;;;;3.72;0.70;;;;;;;17.23;57.10;98941.09;5588876;31;34710;-64